FDX9081 PANC-RJAA
Flight info
| Callsign | FDX9081 |
|---|---|
| Flight time | N/A |
| Altitude | 32000 |
| Route | NODLE R220 NEONN/N0448F330 R220 NANDY/N0444F340 R220 NRKEY/N0453F350 R220 NANNO/N0453F360 R220 NANAC Y810 OLDIV Y809 SUPOK |
| Aircraft | A306/H-SDE3FGHIRWY/LB1 |
Departure
| Time | 2026-04-30 14:48 |
|---|---|
| Airport | Ted Stevens Anchorage International Airport (PANC) |
Arrival
| Time | N/A |
|---|---|
| Airport | Narita International Airport (RJAA) |
| Time | Latitude | Longitude | Altitude | Speed | Heading |
|---|---|---|---|---|---|
| 2026-04-30 14:23 | 61.18934 | -150.00238 | 122 ft | 0 kts | 255° |
| 2026-04-30 14:35 | 61.18940 | -150.00188 | 120 ft | 4 kts | 255° |
| 2026-04-30 14:35 | 61.18946 | -150.00142 | 122 ft | 2 kts | 255° |
| 2026-04-30 14:35 | 61.18955 | -150.00098 | 114 ft | 4 kts | 214° |
| 2026-04-30 14:36 | 61.18975 | -150.00092 | 117 ft | 4 kts | 165° |
| 2026-04-30 14:36 | 61.18992 | -150.00101 | 118 ft | 1 kts | 165° |
| 2026-04-30 14:41 | 61.18971 | -150.00090 | 118 ft | 7 kts | 165° |
| 2026-04-30 14:41 | 61.18906 | -150.00053 | 130 ft | 10 kts | 165° |
| 2026-04-30 14:42 | 61.18816 | -150.00000 | 122 ft | 15 kts | 164° |
| 2026-04-30 14:42 | 61.18733 | -150.00022 | 122 ft | 13 kts | 227° |
| 2026-04-30 14:42 | 61.18705 | -150.00212 | 125 ft | 15 kts | 256° |
| 2026-04-30 14:42 | 61.18663 | -150.00343 | 134 ft | 9 kts | 190° |
| 2026-04-30 14:43 | 61.18567 | -150.00308 | 125 ft | 19 kts | 165° |
| 2026-04-30 14:43 | 61.18409 | -150.00217 | 126 ft | 28 kts | 165° |
| 2026-04-30 14:43 | 61.18206 | -150.00107 | 119 ft | 34 kts | 164° |
| 2026-04-30 14:43 | 61.17966 | -149.99969 | 121 ft | 34 kts | 165° |
| 2026-04-30 14:44 | 61.17767 | -149.99860 | 120 ft | 31 kts | 165° |
| 2026-04-30 14:44 | 61.17576 | -149.99759 | 123 ft | 27 kts | 165° |
| 2026-04-30 14:44 | 61.17408 | -149.99665 | 123 ft | 23 kts | 163° |
| 2026-04-30 14:44 | 61.17264 | -149.99584 | 125 ft | 20 kts | 165° |
| 2026-04-30 14:45 | 61.17158 | -149.99537 | 126 ft | 9 kts | 190° |
| 2026-04-30 14:45 | 61.17123 | -149.99604 | 126 ft | 6 kts | 246° |
| 2026-04-30 14:45 | 61.17123 | -149.99689 | 133 ft | 6 kts | 271° |
| 2026-04-30 14:45 | 61.17124 | -149.99789 | 135 ft | 7 kts | 270° |
| 2026-04-30 14:46 | 61.17124 | -149.99905 | 137 ft | 9 kts | 270° |
| 2026-04-30 14:46 | 61.17125 | -150.00038 | 140 ft | 10 kts | 270° |
| 2026-04-30 14:46 | 61.17125 | -150.00216 | 142 ft | 15 kts | 270° |
| 2026-04-30 14:46 | 61.17124 | -150.00465 | 143 ft | 20 kts | 270° |
| 2026-04-30 14:47 | 61.17124 | -150.00702 | 143 ft | 11 kts | 269° |
| 2026-04-30 14:47 | 61.17070 | -150.00812 | 141 ft | 16 kts | 181° |
| 2026-04-30 14:47 | 61.16979 | -150.00799 | 142 ft | 5 kts | 135° |
| 2026-04-30 14:47 | 61.16977 | -150.00699 | 143 ft | 12 kts | 90° |
| 2026-04-30 14:48 | 61.16977 | -150.00291 | 141 ft | 55 kts | 89° |
| 2026-04-30 14:48 | 61.16978 | -149.99045 | 125 ft | 117 kts | 90° |
| 2026-04-30 14:48 | 61.16982 | -149.96967 | 118 ft | 171 kts | 89° |
| 2026-04-30 14:48 | 61.16984 | -149.94422 | 817 ft | 175 kts | 90° |
| 2026-04-30 14:49 | 61.17036 | -149.91978 | 1876 ft | 169 kts | 79° |
| 2026-04-30 14:49 | 61.17653 | -149.89788 | 2265 ft | 187 kts | 41° |
| 2026-04-30 14:49 | 61.18826 | -149.88581 | 2799 ft | 192 kts | 19° |
| 2026-04-30 14:49 | 61.20131 | -149.87860 | 3298 ft | 202 kts | 15° |
| 2026-04-30 14:50 | 61.23098 | -149.87763 | 4088 ft | 229 kts | 332° |
| 2026-04-30 14:50 | 61.24373 | -149.89759 | 4642 ft | 233 kts | 315° |
| 2026-04-30 14:51 | 61.26850 | -149.94913 | 5192 ft | 270 kts | 312° |
| 2026-04-30 14:51 | 61.28168 | -149.97705 | 5803 ft | 276 kts | 312° |
| 2026-04-30 14:51 | 61.30449 | -150.08514 | 8086 ft | 272 kts | 270° |
| 2026-04-30 14:52 | 61.30322 | -150.24548 | 10671 ft | 291 kts | 264° |
| 2026-04-30 14:52 | 61.30033 | -150.63422 | 13892 ft | 353 kts | 266° |
| 2026-04-30 14:52 | 61.29867 | -150.84136 | 15769 ft | 362 kts | 266° |
| 2026-04-30 14:53 | 61.29408 | -151.26977 | 17992 ft | 374 kts | 265° |
| 2026-04-30 14:53 | 61.29144 | -151.48369 | 17982 ft | 374 kts | 265° |
| 2026-04-30 14:54 | 61.28473 | -151.92159 | 20280 ft | 384 kts | 264° |
| 2026-04-30 14:54 | 61.28530 | -152.37523 | 23101 ft | 399 kts | 266° |
| 2026-04-30 14:55 | 61.28616 | -152.84546 | 24968 ft | 416 kts | 266° |
| 2026-04-30 14:55 | 61.28601 | -153.08595 | 25842 ft | 422 kts | 266° |
| 2026-04-30 14:55 | 61.28430 | -153.58433 | 27372 ft | 434 kts | 265° |
| 2026-04-30 14:56 | 61.28079 | -154.08379 | 29221 ft | 433 kts | 265° |
| 2026-04-30 14:56 | 61.27535 | -154.58572 | 30779 ft | 433 kts | 264° |
| 2026-04-30 14:57 | 61.27197 | -154.83603 | 31583 ft | 432 kts | 264° |
| 2026-04-30 14:57 | 61.26394 | -155.32780 | 31840 ft | 422 kts | 264° |
| 2026-04-30 14:58 | 61.25425 | -155.81470 | 31832 ft | 422 kts | 263° |
| 2026-04-30 14:58 | 61.25277 | -156.54971 | 31819 ft | 422 kts | 266° |
| 2026-04-30 15:00 | 61.25060 | -157.76266 | 31782 ft | 423 kts | 265° |
| 2026-04-30 15:01 | 61.24105 | -158.73824 | 31741 ft | 420 kts | 264° |
| 2026-04-30 15:01 | 61.22933 | -159.46657 | 31715 ft | 423 kts | 264° |
| 2026-04-30 15:02 | 61.21938 | -159.95202 | 31687 ft | 421 kts | 263° |
| 2026-04-30 15:03 | 61.18720 | -161.15269 | 31679 ft | 417 kts | 262° |
| 2026-04-30 15:04 | 61.14488 | -162.33928 | 31670 ft | 411 kts | 261° |
| 2026-04-30 15:06 | 61.04922 | -163.48239 | 31631 ft | 400 kts | 251° |
| 2026-04-30 15:07 | 60.92176 | -164.35658 | 31609 ft | 399 kts | 250° |
| 2026-04-30 15:08 | 60.78841 | -165.22523 | 31594 ft | 399 kts | 250° |
| 2026-04-30 15:09 | 60.61385 | -166.30074 | 31590 ft | 401 kts | 249° |
| 2026-04-30 15:10 | 60.46829 | -167.15131 | 31542 ft | 398 kts | 249° |
| 2026-04-30 15:11 | 60.24086 | -168.41726 | 31486 ft | 399 kts | 249° |
| 2026-04-30 15:13 | 60.04524 | -169.46197 | 31531 ft | 401 kts | 248° |
| 2026-04-30 15:14 | 59.75687 | -170.90752 | 31522 ft | 402 kts | 247° |
| 2026-04-30 15:17 | 59.38761 | -172.67103 | 31530 ft | 401 kts | 247° |
| 2026-04-30 15:19 | 59.03769 | -174.27483 | 31557 ft | 402 kts | 246° |